SERB

Details ICAO SERB
Name CHIMBORAZO
Region Equador
Timezone America/Guayaquil (UTC-5.0)
Plans Departing 1
Arriving 0
Stats Elevation 9,151 ft / 2,789 m (AMSL)
Location -1.653434° -78.656142°
Runways 1
Magnetic Variation 3.095° W
Sunrise 2017-12-18 11:06:12 UTC / 2017-12-18 06:06:12 Local
Sunset 2017-12-18 23:19:11 UTC / 2017-12-18 18:19:11 Local
Advertisement - Login to hide

Runways

ID Width Length Bearing (true) Bearing (mag) Surface Threshold Offset Overrun Length
05 95 ft / 29 m 5,258 ft / 1,603 m 55.72° 58.81° Asphalt 0 ft / 0 m 0 ft / 0 m
23 95 ft / 29 m 5,258 ft / 1,603 m 235.72° 238.81° Asphalt 0 ft / 0 m 0 ft / 0 m

Map

Weather


0- 5 10 15 20 25 30 35+ Temperature / ° C

Clouds and Precipitation
Forecast for 2017-12-19 00:00 UTC. Updated an hour ago

Ground ~20,000 ft ~40,000 ft Winds

METAR

SERB 182000Z 05018KT 9999 SCT040 21/08 Q1025

TAF

Not found

Frequencies

Tower 122.90 MHz RIOBAMBA TWR
Warning: Do not use this data for real-world aviation or navigation. No guarantee of current accuracy is given.